sensor_id;sensor_type;location;lat;lon;timestamp;temperature;humidity
12839;DHT22;6486;51.034;5.262;2023-04-01T00:00:47;11.20;87.80
12839;DHT22;6486;51.034;5.262;2023-04-01T00:03:13;11.20;87.90
12839;DHT22;6486;51.034;5.262;2023-04-01T00:05:39;11.20;88.00
12839;DHT22;6486;51.034;5.262;2023-04-01T00:08:05;11.20;88.00
12839;DHT22;6486;51.034;5.262;2023-04-01T00:10:30;11.20;88.00
12839;DHT22;6486;51.034;5.262;2023-04-01T00:12:56;11.30;88.00
12839;DHT22;6486;51.034;5.262;2023-04-01T00:15:21;11.20;88.00
12839;DHT22;6486;51.034;5.262;2023-04-01T00:17:47;11.20;88.00
12839;DHT22;6486;51.034;5.262;2023-04-01T00:20:14;11.30;88.20
12839;DHT22;6486;51.034;5.262;2023-04-01T00:22:40;11.20;88.20
12839;DHT22;6486;51.034;5.262;2023-04-01T00:25:06;11.20;88.30
12839;DHT22;6486;51.034;5.262;2023-04-01T00:27:32;11.20;88.40
12839;DHT22;6486;51.034;5.262;2023-04-01T00:29:57;11.20;88.40
12839;DHT22;6486;51.034;5.262;2023-04-01T00:32:23;11.20;88.40
12839;DHT22;6486;51.034;5.262;2023-04-01T00:34:52;11.20;88.30
12839;DHT22;6486;51.034;5.262;2023-04-01T00:37:19;11.20;89.00
12839;DHT22;6486;51.034;5.262;2023-04-01T00:39:44;11.20;88.40
12839;DHT22;6486;51.034;5.262;2023-04-01T00:42:11;11.20;88.40
12839;DHT22;6486;51.034;5.262;2023-04-01T00:44:38;11.20;88.40
12839;DHT22;6486;51.034;5.262;2023-04-01T00:47:04;11.30;88.40
12839;DHT22;6486;51.034;5.262;2023-04-01T00:49:36;11.20;88.40
12839;DHT22;6486;51.034;5.262;2023-04-01T00:52:04;11.20;88.50
12839;DHT22;6486;51.034;5.262;2023-04-01T00:54:31;11.20;88.50
12839;DHT22;6486;51.034;5.262;2023-04-01T00:57:07;11.20;88.60
12839;DHT22;6486;51.034;5.262;2023-04-01T00:59:39;11.20;89.40
12839;DHT22;6486;51.034;5.262;2023-04-01T01:02:08;11.20;88.80
12839;DHT22;6486;51.034;5.262;2023-04-01T01:04:35;11.20;88.70
12839;DHT22;6486;51.034;5.262;2023-04-01T01:07:37;11.20;88.80
12839;DHT22;6486;51.034;5.262;2023-04-01T01:10:10;11.20;89.00
12839;DHT22;6486;51.034;5.262;2023-04-01T01:24:25;11.10;89.40
12839;DHT22;6486;51.034;5.262;2023-04-01T01:27:10;11.10;89.50
12839;DHT22;6486;51.034;5.262;2023-04-01T01:29:42;11.00;89.70
12839;DHT22;6486;51.034;5.262;2023-04-01T01:37:55;11.00;89.70
12839;DHT22;6486;51.034;5.262;2023-04-01T01:40:22;11.10;89.80
12839;DHT22;6486;51.034;5.262;2023-04-01T01:42:53;11.10;89.60
12839;DHT22;6486;51.034;5.262;2023-04-01T01:45:21;11.10;89.50
12839;DHT22;6486;51.034;5.262;2023-04-01T01:47:49;11.10;89.40
12839;DHT22;6486;51.034;5.262;2023-04-01T01:50:15;11.10;89.40
12839;DHT22;6486;51.034;5.262;2023-04-01T01:52:42;11.10;89.40
12839;DHT22;6486;51.034;5.262;2023-04-01T01:55:31;11.20;89.50
12839;DHT22;6486;51.034;5.262;2023-04-01T01:57:59;11.10;89.40
12839;DHT22;6486;51.034;5.262;2023-04-01T02:00:27;11.20;89.60
12839;DHT22;6486;51.034;5.262;2023-04-01T02:02:54;11.10;89.60
12839;DHT22;6486;51.034;5.262;2023-04-01T02:05:23;11.10;89.70
12839;DHT22;6486;51.034;5.262;2023-04-01T02:08:05;11.10;89.70
12839;DHT22;6486;51.034;5.262;2023-04-01T02:10:35;11.10;89.80
12839;DHT22;6486;51.034;5.262;2023-04-01T02:13:07;11.10;89.90
12839;DHT22;6486;51.034;5.262;2023-04-01T02:15:37;11.10;90.00
12839;DHT22;6486;51.034;5.262;2023-04-01T02:18:05;11.10;90.00
12839;DHT22;6486;51.034;5.262;2023-04-01T02:20:32;11.10;90.00
12839;DHT22;6486;51.034;5.262;2023-04-01T02:22:58;11.10;90.00
12839;DHT22;6486;51.034;5.262;2023-04-01T02:25:30;11.10;90.00
12839;DHT22;6486;51.034;5.262;2023-04-01T02:28:00;11.10;90.30
12839;DHT22;6486;51.034;5.262;2023-04-01T02:30:28;11.10;90.00
12839;DHT22;6486;51.034;5.262;2023-04-01T02:32:57;11.10;90.00
12839;DHT22;6486;51.034;5.262;2023-04-01T02:35:23;11.10;90.00
12839;DHT22;6486;51.034;5.262;2023-04-01T02:37:50;11.10;90.10
12839;DHT22;6486;51.034;5.262;2023-04-01T02:40:17;11.10;90.10
12839;DHT22;6486;51.034;5.262;2023-04-01T02:42:43;11.00;90.00
12839;DHT22;6486;51.034;5.262;2023-04-01T02:45:09;11.10;90.10
12839;DHT22;6486;51.034;5.262;2023-04-01T02:47:35;11.10;90.00
12839;DHT22;6486;51.034;5.262;2023-04-01T02:50:01;11.10;89.90
12839;DHT22;6486;51.034;5.262;2023-04-01T02:52:30;11.10;89.80
12839;DHT22;6486;51.034;5.262;2023-04-01T02:54:56;11.10;89.90
12839;DHT22;6486;51.034;5.262;2023-04-01T02:57:22;11.10;89.90
12839;DHT22;6486;51.034;5.262;2023-04-01T02:59:48;11.10;90.00
12839;DHT22;6486;51.034;5.262;2023-04-01T03:02:15;11.00;90.00
12839;DHT22;6486;51.034;5.262;2023-04-01T03:04:41;11.10;90.10
12839;DHT22;6486;51.034;5.262;2023-04-01T03:07:06;11.10;90.00
12839;DHT22;6486;51.034;5.262;2023-04-01T03:09:32;11.10;90.00
12839;DHT22;6486;51.034;5.262;2023-04-01T03:11:58;11.10;90.00
12839;DHT22;6486;51.034;5.262;2023-04-01T03:14:23;11.00;90.00
12839;DHT22;6486;51.034;5.262;2023-04-01T03:16:49;11.10;90.00
12839;DHT22;6486;51.034;5.262;2023-04-01T03:19:15;11.10;90.00
12839;DHT22;6486;51.034;5.262;2023-04-01T03:21:40;11.00;90.20
12839;DHT22;6486;51.034;5.262;2023-04-01T03:24:06;11.00;90.00
12839;DHT22;6486;51.034;5.262;2023-04-01T03:26:33;11.00;90.00
12839;DHT22;6486;51.034;5.262;2023-04-01T03:28:58;11.00;90.00
12839;DHT22;6486;51.034;5.262;2023-04-01T03:31:24;11.00;90.00
12839;DHT22;6486;51.034;5.262;2023-04-01T03:33:50;10.90;90.00
12839;DHT22;6486;51.034;5.262;2023-04-01T03:36:16;10.90;90.00
12839;DHT22;6486;51.034;5.262;2023-04-01T03:38:42;10.90;90.10
12839;DHT22;6486;51.034;5.262;2023-04-01T03:41:15;10.90;90.40
12839;DHT22;6486;51.034;5.262;2023-04-01T03:43:41;10.90;90.10
12839;DHT22;6486;51.034;5.262;2023-04-01T03:46:07;10.90;90.20
12839;DHT22;6486;51.034;5.262;2023-04-01T03:48:33;10.80;90.10
12839;DHT22;6486;51.034;5.262;2023-04-01T03:50:58;10.80;90.10
12839;DHT22;6486;51.034;5.262;2023-04-01T03:53:24;10.80;90.20
12839;DHT22;6486;51.034;5.262;2023-04-01T03:55:50;10.80;90.10
12839;DHT22;6486;51.034;5.262;2023-04-01T03:58:17;10.80;90.10
12839;DHT22;6486;51.034;5.262;2023-04-01T04:00:43;10.80;90.10
12839;DHT22;6486;51.034;5.262;2023-04-01T04:03:08;10.80;90.10
12839;DHT22;6486;51.034;5.262;2023-04-01T04:05:34;10.80;90.20
12839;DHT22;6486;51.034;5.262;2023-04-01T04:08:00;10.80;90.20
12839;DHT22;6486;51.034;5.262;2023-04-01T04:10:26;10.80;90.20
12839;DHT22;6486;51.034;5.262;2023-04-01T04:12:52;10.80;90.10
12839;DHT22;6486;51.034;5.262;2023-04-01T04:15:18;10.80;90.20
12839;DHT22;6486;51.034;5.262;2023-04-01T04:17:45;10.80;90.20
12839;DHT22;6486;51.034;5.262;2023-04-01T04:20:10;10.80;90.20
12839;DHT22;6486;51.034;5.262;2023-04-01T04:22:36;10.80;90.30
12839;DHT22;6486;51.034;5.262;2023-04-01T04:25:02;10.80;90.30
12839;DHT22;6486;51.034;5.262;2023-04-01T04:27:27;10.80;90.30
12839;DHT22;6486;51.034;5.262;2023-04-01T04:29:53;10.80;90.30
12839;DHT22;6486;51.034;5.262;2023-04-01T04:32:19;10.80;90.30
12839;DHT22;6486;51.034;5.262;2023-04-01T04:34:44;10.70;90.30
12839;DHT22;6486;51.034;5.262;2023-04-01T04:37:10;10.70;90.30
12839;DHT22;6486;51.034;5.262;2023-04-01T04:39:35;10.70;90.30
12839;DHT22;6486;51.034;5.262;2023-04-01T04:42:01;10.70;90.30
12839;DHT22;6486;51.034;5.262;2023-04-01T04:44:26;10.70;90.40
12839;DHT22;6486;51.034;5.262;2023-04-01T04:46:52;10.70;90.40
12839;DHT22;6486;51.034;5.262;2023-04-01T04:49:17;10.70;90.40
12839;DHT22;6486;51.034;5.262;2023-04-01T04:51:44;10.70;90.40
12839;DHT22;6486;51.034;5.262;2023-04-01T04:54:10;10.70;90.40
12839;DHT22;6486;51.034;5.262;2023-04-01T04:56:36;10.80;90.40
12839;DHT22;6486;51.034;5.262;2023-04-01T04:59:02;10.70;90.40
12839;DHT22;6486;51.034;5.262;2023-04-01T05:01:27;10.70;90.40
12839;DHT22;6486;51.034;5.262;2023-04-01T05:03:53;10.70;90.80
12839;DHT22;6486;51.034;5.262;2023-04-01T05:06:20;10.70;90.50
12839;DHT22;6486;51.034;5.262;2023-04-01T05:08:46;10.70;90.50
12839;DHT22;6486;51.034;5.262;2023-04-01T05:11:15;10.70;90.40
12839;DHT22;6486;51.034;5.262;2023-04-01T05:13:41;10.70;90.50
12839;DHT22;6486;51.034;5.262;2023-04-01T05:16:15;10.70;90.70
12839;DHT22;6486;51.034;5.262;2023-04-01T05:18:41;10.70;90.40
12839;DHT22;6486;51.034;5.262;2023-04-01T05:21:09;10.70;90.40
12839;DHT22;6486;51.034;5.262;2023-04-01T05:23:35;10.70;90.40
12839;DHT22;6486;51.034;5.262;2023-04-01T05:26:05;10.80;90.70
12839;DHT22;6486;51.034;5.262;2023-04-01T05:28:31;10.80;90.40
12839;DHT22;6486;51.034;5.262;2023-04-01T05:31:02;10.80;90.40
12839;DHT22;6486;51.034;5.262;2023-04-01T05:33:28;10.80;90.40
12839;DHT22;6486;51.034;5.262;2023-04-01T05:35:54;10.80;90.50
12839;DHT22;6486;51.034;5.262;2023-04-01T05:38:20;10.80;90.50
12839;DHT22;6486;51.034;5.262;2023-04-01T05:40:46;10.80;90.50
12839;DHT22;6486;51.034;5.262;2023-04-01T05:43:12;10.80;90.50
12839;DHT22;6486;51.034;5.262;2023-04-01T05:45:37;10.80;90.50
12839;DHT22;6486;51.034;5.262;2023-04-01T05:48:03;10.80;90.50
12839;DHT22;6486;51.034;5.262;2023-04-01T05:50:29;10.80;90.50
12839;DHT22;6486;51.034;5.262;2023-04-01T05:52:55;10.80;90.50
12839;DHT22;6486;51.034;5.262;2023-04-01T05:55:21;10.80;90.80
12839;DHT22;6486;51.034;5.262;2023-04-01T05:57:46;10.80;90.50
12839;DHT22;6486;51.034;5.262;2023-04-01T06:00:14;10.80;90.50
12839;DHT22;6486;51.034;5.262;2023-04-01T06:02:40;10.80;90.40
12839;DHT22;6486;51.034;5.262;2023-04-01T06:05:12;10.80;90.40
12839;DHT22;6486;51.034;5.262;2023-04-01T06:07:38;10.80;90.40
12839;DHT22;6486;51.034;5.262;2023-04-01T06:10:13;10.80;90.50
12839;DHT22;6486;51.034;5.262;2023-04-01T06:26:30;10.80;90.60
12839;DHT22;6486;51.034;5.262;2023-04-01T06:32:06;10.70;90.60
12839;DHT22;6486;51.034;5.262;2023-04-01T06:47:59;10.80;90.70
12839;DHT22;6486;51.034;5.262;2023-04-01T06:50:57;10.80;90.60
12839;DHT22;6486;51.034;5.262;2023-04-01T06:56:17;10.80;90.70
12839;DHT22;6486;51.034;5.262;2023-04-01T07:01:45;10.80;90.60
12839;DHT22;6486;51.034;5.262;2023-04-01T07:04:29;10.70;90.60
12839;DHT22;6486;51.034;5.262;2023-04-01T07:06:59;10.70;90.60
12839;DHT22;6486;51.034;5.262;2023-04-01T07:09:39;10.70;90.60
12839;DHT22;6486;51.034;5.262;2023-04-01T07:14:56;10.80;90.70
12839;DHT22;6486;51.034;5.262;2023-04-01T07:17:27;10.70;90.70
12839;DHT22;6486;51.034;5.262;2023-04-01T07:22:38;10.80;90.70
12839;DHT22;6486;51.034;5.262;2023-04-01T07:25:26;10.70;91.00
12839;DHT22;6486;51.034;5.262;2023-04-01T07:28:02;10.80;90.70
12839;DHT22;6486;51.034;5.262;2023-04-01T07:36:00;10.80;90.70
12839;DHT22;6486;51.034;5.262;2023-04-01T07:41:37;10.90;90.70
12839;DHT22;6486;51.034;5.262;2023-04-01T07:54:39;11.10;90.90
12839;DHT22;6486;51.034;5.262;2023-04-01T07:59:53;11.00;90.50
12839;DHT22;6486;51.034;5.262;2023-04-01T08:10:54;11.00;90.50
12839;DHT22;6486;51.034;5.262;2023-04-01T08:21:08;11.00;90.50
12839;DHT22;6486;51.034;5.262;2023-04-01T08:23:43;11.00;90.50
12839;DHT22;6486;51.034;5.262;2023-04-01T08:28:45;11.00;90.50
12839;DHT22;6486;51.034;5.262;2023-04-01T08:31:22;11.00;90.40
12839;DHT22;6486;51.034;5.262;2023-04-01T08:33:53;11.00;90.40
12839;DHT22;6486;51.034;5.262;2023-04-01T08:36:42;11.00;90.50
12839;DHT22;6486;51.034;5.262;2023-04-01T08:49:41;10.90;90.60
12839;DHT22;6486;51.034;5.262;2023-04-01T08:52:52;10.90;90.60
12839;DHT22;6486;51.034;5.262;2023-04-01T09:04:49;11.10;90.60
12839;DHT22;6486;51.034;5.262;2023-04-01T09:10:16;11.10;90.50
12839;DHT22;6486;51.034;5.262;2023-04-01T09:15:45;11.20;90.60
12839;DHT22;6486;51.034;5.262;2023-04-01T09:24:18;11.30;90.50
12839;DHT22;6486;51.034;5.262;2023-04-01T09:40:58;11.40;90.40
12839;DHT22;6486;51.034;5.262;2023-04-01T09:46:21;11.40;90.40
12839;DHT22;6486;51.034;5.262;2023-04-01T09:51:30;11.50;90.40
12839;DHT22;6486;51.034;5.262;2023-04-01T10:20:00;11.60;90.30
12839;DHT22;6486;51.034;5.262;2023-04-01T10:25:27;11.60;90.20
12839;DHT22;6486;51.034;5.262;2023-04-01T10:39:59;11.60;90.20
12839;DHT22;6486;51.034;5.262;2023-04-01T10:54:48;11.80;90.20
12839;DHT22;6486;51.034;5.262;2023-04-01T11:20:07;12.00;90.00
12839;DHT22;6486;51.034;5.262;2023-04-01T11:31:35;12.20;90.00
12839;DHT22;6486;51.034;5.262;2023-04-01T11:53:18;12.20;89.60
12839;DHT22;6486;51.034;5.262;2023-04-01T12:01:43;12.00;89.90
12839;DHT22;6486;51.034;5.262;2023-04-01T12:10:44;11.90;89.80
12839;DHT22;6486;51.034;5.262;2023-04-01T12:13:35;11.90;89.80
12839;DHT22;6486;51.034;5.262;2023-04-01T12:21:32;11.90;89.60
12839;DHT22;6486;51.034;5.262;2023-04-01T12:27:09;11.90;89.60
12839;DHT22;6486;51.034;5.262;2023-04-01T12:32:37;11.90;89.60
12839;DHT22;6486;51.034;5.262;2023-04-01T12:35:27;11.90;89.60
12839;DHT22;6486;51.034;5.262;2023-04-01T12:38:24;11.90;89.50
12839;DHT22;6486;51.034;5.262;2023-04-01T12:49:33;11.80;89.30
12839;DHT22;6486;51.034;5.262;2023-04-01T12:52:07;11.80;89.20
12839;DHT22;6486;51.034;5.262;2023-04-01T13:14:50;12.00;89.40
12839;DHT22;6486;51.034;5.262;2023-04-01T13:17:26;12.00;89.40
12839;DHT22;6486;51.034;5.262;2023-04-01T13:20:03;12.00;89.10
12839;DHT22;6486;51.034;5.262;2023-04-01T13:28:14;12.00;89.20
12839;DHT22;6486;51.034;5.262;2023-04-01T13:44:47;12.10;89.30
12839;DHT22;6486;51.034;5.262;2023-04-01T13:47:21;12.00;89.40
12839;DHT22;6486;51.034;5.262;2023-04-01T13:53:00;12.00;89.50
12839;DHT22;6486;51.034;5.262;2023-04-01T13:55:49;12.00;89.50
12839;DHT22;6486;51.034;5.262;2023-04-01T14:01:13;12.20;89.30
12839;DHT22;6486;51.034;5.262;2023-04-01T14:06:34;12.20;89.50
12839;DHT22;6486;51.034;5.262;2023-04-01T14:09:33;12.20;89.50
12839;DHT22;6486;51.034;5.262;2023-04-01T14:20:35;12.00;89.20
12839;DHT22;6486;51.034;5.262;2023-04-01T14:26:07;12.00;89.10
12839;DHT22;6486;51.034;5.262;2023-04-01T14:37:05;11.90;89.20
12839;DHT22;6486;51.034;5.262;2023-04-01T14:50:30;11.90;89.20
12839;DHT22;6486;51.034;5.262;2023-04-01T14:53:31;11.90;89.20
12839;DHT22;6486;51.034;5.262;2023-04-01T14:56:00;11.80;89.30
12839;DHT22;6486;51.034;5.262;2023-04-01T14:58:46;11.80;89.30
12839;DHT22;6486;51.034;5.262;2023-04-01T15:04:07;11.80;89.20
12839;DHT22;6486;51.034;5.262;2023-04-01T15:17:31;11.80;89.40
12839;DHT22;6486;51.034;5.262;2023-04-01T15:28:36;11.80;89.70
12839;DHT22;6486;51.034;5.262;2023-04-01T15:31:08;11.90;89.80
12839;DHT22;6486;51.034;5.262;2023-04-01T15:34:07;12.00;89.60
12839;DHT22;6486;51.034;5.262;2023-04-01T15:36:51;12.10;89.60
12839;DHT22;6486;51.034;5.262;2023-04-01T15:42:24;12.20;89.40
12839;DHT22;6486;51.034;5.262;2023-04-01T15:50:51;12.20;89.20
12839;DHT22;6486;51.034;5.262;2023-04-01T15:53:50;12.10;88.70
12839;DHT22;6486;51.034;5.262;2023-04-01T16:01:51;12.20;88.60
12839;DHT22;6486;51.034;5.262;2023-04-01T16:04:39;12.00;88.50
12839;DHT22;6486;51.034;5.262;2023-04-01T16:07:25;12.00;88.70
12839;DHT22;6486;51.034;5.262;2023-04-01T16:12:49;11.90;88.50
12839;DHT22;6486;51.034;5.262;2023-04-01T16:15:39;11.90;88.50
12839;DHT22;6486;51.034;5.262;2023-04-01T16:18:20;11.90;88.60
12839;DHT22;6486;51.034;5.262;2023-04-01T16:21:12;11.80;88.50
12839;DHT22;6486;51.034;5.262;2023-04-01T16:23:47;11.80;88.50
12839;DHT22;6486;51.034;5.262;2023-04-01T16:29:28;11.70;88.30
12839;DHT22;6486;51.034;5.262;2023-04-01T16:32:03;11.60;88.20
12839;DHT22;6486;51.034;5.262;2023-04-01T16:34:36;11.60;88.30
12839;DHT22;6486;51.034;5.262;2023-04-01T16:37:17;11.60;88.40
12839;DHT22;6486;51.034;5.262;2023-04-01T16:42:50;11.50;88.50
12839;DHT22;6486;51.034;5.262;2023-04-01T16:45:23;11.50;88.50
12839;DHT22;6486;51.034;5.262;2023-04-01T16:47:54;11.50;88.50
12839;DHT22;6486;51.034;5.262;2023-04-01T16:50:30;11.50;88.50
12839;DHT22;6486;51.034;5.262;2023-04-01T17:01:26;11.50;88.70
12839;DHT22;6486;51.034;5.262;2023-04-01T17:03:57;11.40;88.60
12839;DHT22;6486;51.034;5.262;2023-04-01T17:09:28;11.40;88.90
12839;DHT22;6486;51.034;5.262;2023-04-01T17:12:20;11.30;88.90
12839;DHT22;6486;51.034;5.262;2023-04-01T17:18:09;11.20;88.90
12839;DHT22;6486;51.034;5.262;2023-04-01T17:20:59;11.20;89.10
12839;DHT22;6486;51.034;5.262;2023-04-01T17:26:31;11.10;89.20
12839;DHT22;6486;51.034;5.262;2023-04-01T17:29:10;11.10;89.40
12839;DHT22;6486;51.034;5.262;2023-04-01T17:32:06;11.10;89.40
12839;DHT22;6486;51.034;5.262;2023-04-01T17:43:38;11.00;89.30
12839;DHT22;6486;51.034;5.262;2023-04-01T17:46:10;11.00;89.40
12839;DHT22;6486;51.034;5.262;2023-04-01T17:48:54;11.00;89.50
12839;DHT22;6486;51.034;5.262;2023-04-01T18:19:13;11.00;89.60
12839;DHT22;6486;51.034;5.262;2023-04-01T18:21:47;10.90;89.60
12839;DHT22;6486;51.034;5.262;2023-04-01T18:24:40;11.00;89.70
12839;DHT22;6486;51.034;5.262;2023-04-01T18:27:15;10.90;89.70
12839;DHT22;6486;51.034;5.262;2023-04-01T18:29:54;10.90;89.80
12839;DHT22;6486;51.034;5.262;2023-04-01T18:40:35;10.90;90.00
12839;DHT22;6486;51.034;5.262;2023-04-01T18:46:05;11.00;90.10
12839;DHT22;6486;51.034;5.262;2023-04-01T18:51:53;10.90;90.20
12839;DHT22;6486;51.034;5.262;2023-04-01T18:54:32;10.90;90.10
12839;DHT22;6486;51.034;5.262;2023-04-01T18:57:14;10.90;90.10
12839;DHT22;6486;51.034;5.262;2023-04-01T19:02:45;10.90;90.10
12839;DHT22;6486;51.034;5.262;2023-04-01T19:05:28;11.00;90.10
12839;DHT22;6486;51.034;5.262;2023-04-01T19:08:14;10.90;90.10
12839;DHT22;6486;51.034;5.262;2023-04-01T19:25:07;10.90;90.30
12839;DHT22;6486;51.034;5.262;2023-04-01T19:27:42;10.90;90.40
12839;DHT22;6486;51.034;5.262;2023-04-01T19:30:27;10.90;90.40
12839;DHT22;6486;51.034;5.262;2023-04-01T19:46:17;10.90;90.50
12839;DHT22;6486;51.034;5.262;2023-04-01T19:49:17;10.90;90.50
12839;DHT22;6486;51.034;5.262;2023-04-01T19:54:46;10.90;90.60
12839;DHT22;6486;51.034;5.262;2023-04-01T19:57:37;10.90;90.60
12839;DHT22;6486;51.034;5.262;2023-04-01T20:13:45;10.90;90.70
12839;DHT22;6486;51.034;5.262;2023-04-01T20:16:14;11.00;90.80
12839;DHT22;6486;51.034;5.262;2023-04-01T20:18:56;10.90;90.80
12839;DHT22;6486;51.034;5.262;2023-04-01T20:21:35;11.00;90.90
12839;DHT22;6486;51.034;5.262;2023-04-01T20:26:43;11.00;91.00
12839;DHT22;6486;51.034;5.262;2023-04-01T20:29:41;11.10;91.00
12839;DHT22;6486;51.034;5.262;2023-04-01T20:40:45;11.20;91.00
12839;DHT22;6486;51.034;5.262;2023-04-01T20:46:19;11.30;91.10
12839;DHT22;6486;51.034;5.262;2023-04-01T20:51:32;11.40;91.10
12839;DHT22;6486;51.034;5.262;2023-04-01T20:56:52;11.40;91.10
12839;DHT22;6486;51.034;5.262;2023-04-01T21:07:56;11.40;91.00
12839;DHT22;6486;51.034;5.262;2023-04-01T21:32:50;11.50;90.80
12839;DHT22;6486;51.034;5.262;2023-04-01T21:35:30;11.50;90.80
12839;DHT22;6486;51.034;5.262;2023-04-01T21:40:54;11.50;90.80
12839;DHT22;6486;51.034;5.262;2023-04-01T21:54:16;11.30;90.80
12839;DHT22;6486;51.034;5.262;2023-04-01T22:02:45;11.30;90.80
12839;DHT22;6486;51.034;5.262;2023-04-01T22:13:26;11.10;90.60
12839;DHT22;6486;51.034;5.262;2023-04-01T22:18:42;11.10;90.70
12839;DHT22;6486;51.034;5.262;2023-04-01T22:21:18;11.00;90.70
12839;DHT22;6486;51.034;5.262;2023-04-01T22:29:17;11.00;90.60
12839;DHT22;6486;51.034;5.262;2023-04-01T22:37:46;11.00;90.60
12839;DHT22;6486;51.034;5.262;2023-04-01T22:49:12;11.00;90.40
12839;DHT22;6486;51.034;5.262;2023-04-01T22:51:55;11.00;90.40
12839;DHT22;6486;51.034;5.262;2023-04-01T22:54:32;10.90;90.40
12839;DHT22;6486;51.034;5.262;2023-04-01T22:57:08;10.90;90.40
12839;DHT22;6486;51.034;5.262;2023-04-01T23:02:30;10.90;90.40
12839;DHT22;6486;51.034;5.262;2023-04-01T23:05:02;10.90;90.40
12839;DHT22;6486;51.034;5.262;2023-04-01T23:12:44;10.90;90.30
12839;DHT22;6486;51.034;5.262;2023-04-01T23:15:13;10.90;90.30
12839;DHT22;6486;51.034;5.262;2023-04-01T23:20:47;10.90;90.30
12839;DHT22;6486;51.034;5.262;2023-04-01T23:23:24;10.80;90.30
12839;DHT22;6486;51.034;5.262;2023-04-01T23:28:57;10.80;90.20
12839;DHT22;6486;51.034;5.262;2023-04-01T23:31:40;10.80;90.10
12839;DHT22;6486;51.034;5.262;2023-04-01T23:36:46;10.70;90.10
12839;DHT22;6486;51.034;5.262;2023-04-01T23:42:07;10.70;90.10
12839;DHT22;6486;51.034;5.262;2023-04-01T23:44:37;10.70;90.00
12839;DHT22;6486;51.034;5.262;2023-04-01T23:47:04;10.60;90.00
12839;DHT22;6486;51.034;5.262;2023-04-01T23:49:37;10.50;90.00
12839;DHT22;6486;51.034;5.262;2023-04-01T23:52:22;10.50;90.00
12839;DHT22;6486;51.034;5.262;2023-04-01T23:57:40;10.50;90.00
